createdAt,value
2023-03-29T00:01:00.172Z,3.93
2023-03-29T00:03:28.990Z,3.20
2023-03-29T00:06:03.145Z,3.10
2023-03-29T00:08:31.580Z,3.50
2023-03-29T00:10:59.660Z,3.67
2023-03-29T00:13:27.650Z,3.43
2023-03-29T00:15:57.665Z,3.20
2023-03-29T00:18:26.893Z,3.43
2023-03-29T00:21:00.773Z,3.47
2023-03-29T00:23:31.234Z,3.53
2023-03-29T00:26:01.050Z,3.23
2023-03-29T00:28:31.316Z,3.30
2023-03-29T00:31:24.886Z,3.23
2023-03-29T00:33:52.188Z,4.10
2023-03-29T00:36:19.071Z,3.03
2023-03-29T00:38:46.049Z,3.90
2023-03-29T00:41:13.110Z,3.93
2023-03-29T00:44:00.340Z,3.60
2023-03-29T00:46:30.548Z,3.57
2023-03-29T00:49:12.699Z,3.80
2023-03-29T00:51:41.468Z,4.23
2023-03-29T00:54:14.818Z,3.67
2023-03-29T00:56:48.000Z,4.30
2023-03-29T00:59:23.127Z,3.93
2023-03-29T01:02:11.753Z,4.70
2023-03-29T01:04:46.718Z,3.67
2023-03-29T01:07:53.626Z,3.17
2023-03-29T01:10:37.946Z,4.90
2023-03-29T01:13:14.843Z,4.00
2023-03-29T01:15:45.503Z,3.70
2023-03-29T01:18:12.812Z,3.50
2023-03-29T01:21:25.274Z,4.80
2023-03-29T01:24:10.930Z,3.67
2023-03-29T01:27:03.675Z,3.53
2023-03-29T01:29:34.605Z,4.17
2023-03-29T01:32:51.991Z,4.63
2023-03-29T01:35:32.533Z,3.33
2023-03-29T01:38:18.573Z,3.30
2023-03-29T01:40:45.437Z,3.23
2023-03-29T01:43:33.502Z,3.53
2023-03-29T01:46:09.186Z,4.03
2023-03-29T01:48:50.082Z,3.67
2023-03-29T01:51:36.331Z,3.20
2023-03-29T01:54:21.790Z,3.10
2023-03-29T01:56:51.804Z,3.50
2023-03-29T01:59:23.855Z,3.63
2023-03-29T02:01:57.396Z,3.23
2023-03-29T02:04:38.792Z,3.17
2023-03-29T02:07:08.847Z,3.60
2023-03-29T02:09:40.245Z,3.80
2023-03-29T02:12:09.244Z,3.03
2023-03-29T02:14:36.467Z,3.63
2023-03-29T02:17:27.518Z,3.43
2023-03-29T02:20:14.929Z,4.20
2023-03-29T02:22:58.576Z,3.10
2023-03-29T02:25:26.008Z,3.23
2023-03-29T02:27:53.412Z,3.20
2023-03-29T02:30:21.630Z,3.20
2023-03-29T02:33:14.804Z,3.80
2023-03-29T02:36:08.181Z,2.77
2023-03-29T02:38:36.321Z,3.30
2023-03-29T02:41:06.199Z,3.10
2023-03-29T02:43:37.056Z,3.30
2023-03-29T02:46:07.660Z,3.70
2023-03-29T02:48:38.646Z,3.40
2023-03-29T02:51:20.277Z,3.60
2023-03-29T02:54:06.056Z,3.27
2023-03-29T02:56:46.146Z,3.50
2023-03-29T02:59:14.322Z,3.50
2023-03-29T03:01:46.954Z,3.40
2023-03-29T03:04:17.372Z,3.80
2023-03-29T03:06:46.713Z,3.23
2023-03-29T03:09:14.612Z,3.73
2023-03-29T03:11:41.736Z,3.33
2023-03-29T03:14:08.760Z,3.60
2023-03-29T03:16:36.985Z,2.77
2023-03-29T03:19:04.531Z,3.50
2023-03-29T03:21:35.131Z,3.60
2023-03-29T03:24:07.606Z,3.20
2023-03-29T03:26:35.881Z,2.97
2023-03-29T03:29:02.890Z,3.40
2023-03-29T03:31:33.719Z,3.20
2023-03-29T03:34:03.691Z,3.00
2023-03-29T03:36:31.543Z,3.30
2023-03-29T03:38:58.449Z,3.60
2023-03-29T03:41:26.222Z,3.50
2023-03-29T03:43:53.186Z,3.60
2023-03-29T03:46:20.241Z,3.23
2023-03-29T03:48:48.033Z,3.33
2023-03-29T03:51:15.269Z,4.03
2023-03-29T03:53:42.365Z,3.30
2023-03-29T03:56:09.583Z,3.60
2023-03-29T03:58:37.633Z,3.33
2023-03-29T04:01:05.954Z,3.67
2023-03-29T04:03:32.847Z,3.33
2023-03-29T04:06:03.589Z,3.50
2023-03-29T04:08:30.538Z,2.93
2023-03-29T04:11:01.911Z,2.60
2023-03-29T04:13:29.337Z,3.23
2023-03-29T04:16:00.218Z,3.20
2023-03-29T04:18:31.431Z,3.03
2023-03-29T04:21:01.128Z,3.50
2023-03-29T04:23:32.803Z,2.63
2023-03-29T04:26:02.216Z,3.00
2023-03-29T04:28:31.159Z,3.10
2023-03-29T04:30:58.085Z,3.50
2023-03-29T04:33:25.242Z,3.47
2023-03-29T04:35:52.606Z,3.17
2023-03-29T04:38:23.302Z,3.60
2023-03-29T04:40:50.904Z,3.10
2023-03-29T04:43:17.764Z,3.60
2023-03-29T04:45:44.763Z,3.43
2023-03-29T04:48:11.751Z,3.43
2023-03-29T04:50:41.497Z,3.20
2023-03-29T04:53:08.477Z,3.40
2023-03-29T04:55:40.326Z,3.20
2023-03-29T04:58:10.082Z,3.30
2023-03-29T05:00:39.874Z,3.33
2023-03-29T05:03:13.406Z,3.23
2023-03-29T05:05:43.528Z,3.10
2023-03-29T05:08:10.623Z,3.37
2023-03-29T05:10:43.329Z,3.00
2023-03-29T05:13:11.205Z,3.20
2023-03-29T05:15:41.778Z,3.80
2023-03-29T05:18:13.429Z,3.60
2023-03-29T05:20:43.297Z,3.87
2023-03-29T05:23:10.486Z,3.67
2023-03-29T05:25:40.517Z,3.37
2023-03-29T05:28:07.353Z,3.17
2023-03-29T05:30:34.230Z,3.30
2023-03-29T05:33:05.828Z,3.70
2023-03-29T05:35:33.750Z,3.03
2023-03-29T05:38:00.880Z,3.63
2023-03-29T05:40:29.550Z,3.60
2023-03-29T05:42:59.650Z,4.07
2023-03-29T05:45:28.586Z,3.43
2023-03-29T05:47:56.783Z,3.70
2023-03-29T05:50:23.751Z,3.87
2023-03-29T05:52:50.732Z,3.50
2023-03-29T05:55:19.962Z,3.77
2023-03-29T05:57:46.909Z,3.63
2023-03-29T06:00:23.809Z,4.13
2023-03-29T06:03:06.404Z,4.03
2023-03-29T06:05:36.941Z,3.40
2023-03-29T06:08:04.060Z,3.10
2023-03-29T06:10:30.969Z,3.30
2023-03-29T06:12:57.879Z,3.40
2023-03-29T06:15:26.973Z,3.70
2023-03-29T06:17:53.974Z,3.80
2023-03-29T06:20:23.327Z,4.10
2023-03-29T06:22:50.229Z,3.93
2023-03-29T06:25:17.611Z,3.70
2023-03-29T06:27:46.688Z,4.03
2023-03-29T06:30:15.659Z,3.40
2023-03-29T06:32:43.144Z,3.53
2023-03-29T06:35:11.015Z,3.80
2023-03-29T06:37:42.645Z,4.00
2023-03-29T06:40:13.015Z,4.10
2023-03-29T06:42:40.018Z,3.87
2023-03-29T06:45:10.412Z,3.60
2023-03-29T06:47:39.655Z,4.97
2023-03-29T06:50:11.637Z,4.40
2023-03-29T06:52:38.698Z,3.83
2023-03-29T06:55:09.227Z,5.00
2023-03-29T06:57:36.135Z,3.57
2023-03-29T07:00:10.401Z,4.40
2023-03-29T07:02:37.770Z,4.20
2023-03-29T07:05:06.970Z,4.60
2023-03-29T07:07:53.534Z,3.93
2023-03-29T07:10:26.167Z,4.20
2023-03-29T07:12:53.590Z,3.80
2023-03-29T07:15:21.847Z,4.13
2023-03-29T07:17:51.713Z,4.93
2023-03-29T07:20:22.871Z,4.23
2023-03-29T07:22:52.929Z,4.10
2023-03-29T07:25:25.178Z,3.70
2023-03-29T07:27:52.182Z,4.83
2023-03-29T07:30:30.266Z,4.70
2023-03-29T07:33:00.823Z,4.30
2023-03-29T07:35:30.932Z,4.77
2023-03-29T07:37:58.517Z,4.03
2023-03-29T07:40:27.337Z,4.40
2023-03-29T07:43:00.271Z,4.40
2023-03-29T07:45:31.029Z,3.73
2023-03-29T07:47:59.446Z,4.20
2023-03-29T07:50:32.614Z,4.60
2023-03-29T07:53:01.374Z,4.60
2023-03-29T07:55:28.729Z,4.10
2023-03-29T07:57:55.829Z,4.00
2023-03-29T08:00:28.256Z,4.33
2023-03-29T08:02:55.882Z,4.20
2023-03-29T08:05:37.829Z,4.17
2023-03-29T08:08:08.079Z,4.33
2023-03-29T08:10:37.333Z,4.17
2023-03-29T08:13:09.750Z,4.63
2023-03-29T08:15:39.175Z,4.13
2023-03-29T08:18:07.810Z,4.50
2023-03-29T08:20:34.978Z,4.47
2023-03-29T08:23:04.075Z,4.00
2023-03-29T08:25:33.243Z,3.97
2023-03-29T08:28:02.576Z,4.13
2023-03-29T08:30:31.962Z,4.00
2023-03-29T08:32:59.037Z,4.20
2023-03-29T08:35:25.921Z,4.00
2023-03-29T08:37:53.147Z,4.40
2023-03-29T08:40:30.177Z,3.80
2023-03-29T08:42:59.795Z,3.73
2023-03-29T08:45:37.630Z,4.50
2023-03-29T08:48:07.616Z,4.20
2023-03-29T08:50:41.203Z,4.50
2023-03-29T08:53:25.345Z,4.20
2023-03-29T08:55:56.335Z,5.03
2023-03-29T08:58:30.053Z,5.00
2023-03-29T09:01:02.949Z,4.90
2023-03-29T09:03:41.729Z,4.80
2023-03-29T09:06:12.696Z,5.20
2023-03-29T09:08:48.383Z,4.67
2023-03-29T09:11:24.053Z,4.93
2023-03-29T09:14:15.011Z,4.93
2023-03-29T09:17:26.497Z,4.67
2023-03-29T09:20:19.751Z,4.77
2023-03-29T09:23:01.647Z,4.30
2023-03-29T09:26:07.459Z,4.73
2023-03-29T09:28:41.392Z,4.67
2023-03-29T09:31:31.019Z,4.50
2023-03-29T09:34:15.327Z,4.37
2023-03-29T09:36:58.650Z,4.63
2023-03-29T09:39:28.417Z,4.90
2023-03-29T09:42:09.485Z,5.27
2023-03-29T09:44:48.262Z,5.23
2023-03-29T09:47:26.333Z,5.03
2023-03-29T09:50:03.219Z,5.03
2023-03-29T09:52:30.303Z,5.73
2023-03-29T09:55:07.888Z,4.70
2023-03-29T09:57:35.058Z,4.87
2023-03-29T10:00:06.134Z,5.67
2023-03-29T10:02:33.662Z,4.90
2023-03-29T10:05:07.400Z,4.93
2023-03-29T10:07:46.199Z,4.60
2023-03-29T10:10:31.924Z,5.70
2023-03-29T10:13:23.158Z,5.80
2023-03-29T10:16:09.541Z,5.57
2023-03-29T10:18:42.430Z,5.03
2023-03-29T10:21:17.658Z,4.70
2023-03-29T10:23:44.598Z,5.20
2023-03-29T10:26:27.928Z,4.70
2023-03-29T10:28:57.268Z,6.73
2023-03-29T10:31:25.829Z,5.70
2023-03-29T10:33:58.584Z,5.00
2023-03-29T10:36:27.813Z,4.70
2023-03-29T10:38:59.391Z,5.73
2023-03-29T10:41:28.069Z,5.30
2023-03-29T10:43:55.334Z,5.13
2023-03-29T10:46:30.223Z,5.27
2023-03-29T10:49:06.102Z,4.17
2023-03-29T10:51:36.646Z,5.20
2023-03-29T10:54:06.760Z,5.07
2023-03-29T10:56:41.998Z,5.20
2023-03-29T10:59:29.716Z,5.37
2023-03-29T11:02:15.176Z,4.73
2023-03-29T11:05:20.236Z,5.27
2023-03-29T11:08:17.907Z,6.07
2023-03-29T11:11:49.356Z,4.93
2023-03-29T11:14:37.521Z,5.03
2023-03-29T11:17:44.594Z,4.90
2023-03-29T11:20:27.648Z,4.43
2023-03-29T11:23:11.986Z,5.03
2023-03-29T11:26:09.729Z,4.97
2023-03-29T11:28:57.156Z,5.47
2023-03-29T11:31:52.529Z,5.00
2023-03-29T11:35:00.019Z,4.67
2023-03-29T11:37:57.348Z,5.90
2023-03-29T11:40:50.185Z,4.63
2023-03-29T11:43:56.715Z,7.57
2023-03-29T11:46:49.345Z,5.40
2023-03-29T11:49:29.411Z,4.20
2023-03-29T11:52:22.516Z,4.50
2023-03-29T11:55:05.655Z,5.30
2023-03-29T11:58:00.951Z,5.70
2023-03-29T12:00:35.010Z,5.03
2023-03-29T12:03:37.182Z,4.73
2023-03-29T12:06:31.877Z,4.87
2023-03-29T12:09:14.243Z,4.87
2023-03-29T12:11:47.853Z,4.37
2023-03-29T12:14:21.312Z,5.10
2023-03-29T12:17:05.631Z,5.53
2023-03-29T12:19:58.982Z,4.33
2023-03-29T12:22:28.668Z,4.93
2023-03-29T12:24:59.632Z,5.53
2023-03-29T12:27:35.797Z,4.67
2023-03-29T12:30:35.374Z,5.43
2023-03-29T12:33:32.583Z,4.90
2023-03-29T12:36:27.795Z,4.33
2023-03-29T12:38:54.893Z,4.87
2023-03-29T12:41:26.450Z,6.10
2023-03-29T12:43:54.027Z,4.80
2023-03-29T12:46:31.360Z,5.40
2023-03-29T12:49:09.528Z,5.30
2023-03-29T12:51:40.678Z,4.50
2023-03-29T12:54:22.333Z,4.20
2023-03-29T12:56:54.625Z,4.50
2023-03-29T12:59:25.609Z,4.63
2023-03-29T13:02:03.008Z,4.27
2023-03-29T13:04:57.194Z,4.40
2023-03-29T13:07:26.501Z,4.63
2023-03-29T13:09:56.149Z,4.40
2023-03-29T13:12:30.259Z,5.50
2023-03-29T13:15:03.585Z,5.93
2023-03-29T13:18:01.747Z,5.23
2023-03-29T13:20:48.114Z,4.87
2023-03-29T13:23:42.123Z,5.53
2023-03-29T13:26:27.273Z,6.10
2023-03-29T13:29:23.099Z,5.60
2023-03-29T13:32:22.233Z,5.73
2023-03-29T13:34:56.799Z,5.43
2023-03-29T13:38:00.444Z,6.17
2023-03-29T13:40:30.411Z,6.20
2023-03-29T13:43:10.592Z,6.40
2023-03-29T13:45:40.489Z,5.50
2023-03-29T13:48:27.527Z,5.00
2023-03-29T13:51:21.895Z,5.47
2023-03-29T13:54:38.365Z,6.67
2023-03-29T13:57:09.002Z,6.40
2023-03-29T13:59:56.078Z,5.97
2023-03-29T14:02:42.221Z,6.50
2023-03-29T14:05:18.047Z,7.13
2023-03-29T14:07:53.063Z,6.30
2023-03-29T14:10:40.950Z,6.40
2023-03-29T14:13:17.389Z,7.27
2023-03-29T14:16:09.168Z,6.03
2023-03-29T14:18:44.666Z,6.50
2023-03-29T14:21:14.298Z,7.43
2023-03-29T14:23:47.100Z,6.53
2023-03-29T14:26:23.461Z,6.20
2023-03-29T14:28:53.990Z,6.60
2023-03-29T14:31:30.328Z,6.50
2023-03-29T14:34:03.109Z,7.00
2023-03-29T14:36:33.428Z,6.87
2023-03-29T14:39:16.232Z,6.53
2023-03-29T14:41:50.844Z,7.80
2023-03-29T14:44:20.458Z,7.27
2023-03-29T14:46:50.675Z,7.07
2023-03-29T14:49:20.686Z,7.57
2023-03-29T14:51:49.486Z,6.73
2023-03-29T14:54:24.456Z,7.10
2023-03-29T14:56:52.625Z,6.73
2023-03-29T14:59:38.813Z,6.77
2023-03-29T15:02:49.424Z,7.10
2023-03-29T15:05:33.365Z,8.30
2023-03-29T15:08:02.758Z,8.00
2023-03-29T15:10:35.521Z,7.97
2023-03-29T15:13:08.599Z,6.90
2023-03-29T15:15:38.868Z,7.20
2023-03-29T15:18:08.194Z,6.80
2023-03-29T15:20:39.019Z,6.17
2023-03-29T15:23:21.945Z,7.20
2023-03-29T15:25:59.195Z,7.40
2023-03-29T15:28:34.666Z,7.03
2023-03-29T15:31:13.483Z,8.13
2023-03-29T15:33:42.217Z,7.50
2023-03-29T15:36:12.828Z,7.90
2023-03-29T15:38:49.453Z,7.80
2023-03-29T15:41:16.600Z,6.80
2023-03-29T15:43:44.006Z,7.17
2023-03-29T15:46:14.453Z,7.50
2023-03-29T15:48:49.003Z,6.77
2023-03-29T15:51:16.904Z,8.07
2023-03-29T15:53:43.967Z,8.67
2023-03-29T15:56:18.332Z,7.73
2023-03-29T15:58:46.396Z,6.53
2023-03-29T16:01:37.565Z,7.33
2023-03-29T16:04:14.211Z,7.33
2023-03-29T16:06:43.633Z,7.03
2023-03-29T16:09:14.767Z,6.77
2023-03-29T16:11:46.608Z,7.80
2023-03-29T16:14:31.391Z,7.20
2023-03-29T16:17:03.266Z,7.60
2023-03-29T16:19:31.941Z,7.80
2023-03-29T16:22:01.239Z,8.13
2023-03-29T16:24:31.902Z,7.50
2023-03-29T16:27:01.457Z,7.70
2023-03-29T16:29:33.381Z,6.80
2023-03-29T16:32:01.269Z,7.63
2023-03-29T16:34:28.533Z,7.90
2023-03-29T16:36:58.106Z,8.40
2023-03-29T16:39:29.804Z,7.60
2023-03-29T16:41:56.877Z,7.93
2023-03-29T16:44:25.665Z,7.27
2023-03-29T16:46:58.578Z,7.60
2023-03-29T16:49:28.667Z,6.87
2023-03-29T16:52:00.170Z,7.70
2023-03-29T16:54:31.625Z,8.10
2023-03-29T16:56:59.046Z,8.33
2023-03-29T16:59:31.822Z,8.33
2023-03-29T17:01:59.000Z,8.60
2023-03-29T17:04:26.529Z,8.00
2023-03-29T17:06:53.558Z,8.20
2023-03-29T17:09:29.305Z,8.37
2023-03-29T17:11:57.170Z,7.53
2023-03-29T17:14:25.453Z,8.77
2023-03-29T17:16:53.633Z,8.20
2023-03-29T17:19:20.725Z,7.60
2023-03-29T17:21:47.883Z,7.80
2023-03-29T17:24:14.895Z,7.53
2023-03-29T17:26:45.907Z,7.27
2023-03-29T17:29:15.424Z,7.40
2023-03-29T17:31:48.319Z,6.67
2023-03-29T17:34:19.445Z,7.40
2023-03-29T17:36:49.132Z,7.37
2023-03-29T17:39:18.591Z,7.03
2023-03-29T17:41:48.866Z,7.10
2023-03-29T17:44:15.991Z,5.87
2023-03-29T17:46:43.506Z,6.50
2023-03-29T17:49:16.123Z,6.47
2023-03-29T17:51:43.294Z,6.50
2023-03-29T17:54:10.615Z,6.37
2023-03-29T17:56:37.689Z,6.13
2023-03-29T17:59:05.072Z,6.40
2023-03-29T18:01:35.287Z,6.30
2023-03-29T18:04:05.507Z,6.37
2023-03-29T18:06:32.987Z,6.67
2023-03-29T18:09:01.638Z,6.60
2023-03-29T18:11:29.018Z,6.53
2023-03-29T18:14:00.788Z,7.07
2023-03-29T18:16:30.187Z,6.90
2023-03-29T18:18:57.331Z,7.17
2023-03-29T18:21:27.520Z,6.90
2023-03-29T18:23:57.173Z,6.90
2023-03-29T18:26:25.095Z,7.03
2023-03-29T18:28:52.637Z,6.80
2023-03-29T18:31:20.351Z,7.70
2023-03-29T18:33:47.911Z,7.07
2023-03-29T18:36:15.574Z,7.77
2023-03-29T18:38:44.034Z,7.77
2023-03-29T18:41:13.509Z,8.23
2023-03-29T18:43:41.745Z,7.70
2023-03-29T18:46:08.946Z,7.70
2023-03-29T18:48:39.128Z,8.27
2023-03-29T18:51:11.614Z,7.40
2023-03-29T18:53:41.681Z,8.23
2023-03-29T18:56:08.960Z,8.10
2023-03-29T18:58:36.652Z,7.40
2023-03-29T19:01:07.395Z,7.80
2023-03-29T19:03:35.643Z,7.90
2023-03-29T19:06:07.242Z,8.03
2023-03-29T19:08:41.397Z,6.83
2023-03-29T19:11:14.327Z,7.63
2023-03-29T19:13:46.454Z,7.37
2023-03-29T19:16:13.625Z,8.37
2023-03-29T19:18:40.879Z,8.30
2023-03-29T19:21:10.657Z,8.43
2023-03-29T19:23:38.387Z,8.20
2023-03-29T19:26:09.507Z,8.90
2023-03-29T19:28:36.633Z,8.70
2023-03-29T19:31:05.250Z,9.20
2023-03-29T19:33:32.945Z,8.30
2023-03-29T19:36:00.134Z,8.90
2023-03-29T19:38:28.289Z,8.67
2023-03-29T19:40:55.910Z,8.50
2023-03-29T19:43:29.058Z,9.40
2023-03-29T19:45:56.358Z,9.00
2023-03-29T19:48:25.701Z,7.87
2023-03-29T19:51:03.182Z,8.50
2023-03-29T19:53:31.851Z,8.63
2023-03-29T19:56:04.453Z,7.90
2023-03-29T19:58:34.679Z,9.60
2023-03-29T20:01:01.892Z,8.43
2023-03-29T20:03:29.983Z,9.23
2023-03-29T20:05:57.924Z,9.40
2023-03-29T20:08:25.265Z,9.80
2023-03-29T20:11:10.361Z,9.63
2023-03-29T20:13:45.448Z,8.57
2023-03-29T20:16:18.947Z,8.53
2023-03-29T20:18:46.819Z,8.97
2023-03-29T20:21:16.494Z,9.13
2023-03-29T20:23:46.190Z,8.50
2023-03-29T20:26:13.364Z,8.50
2023-03-29T20:28:40.367Z,8.13
2023-03-29T20:31:11.014Z,8.87
2023-03-29T20:33:38.584Z,8.80
2023-03-29T20:36:11.076Z,8.90
2023-03-29T20:38:45.352Z,8.23
2023-03-29T20:41:13.896Z,8.40
2023-03-29T20:43:43.873Z,9.10
2023-03-29T20:46:22.883Z,8.30
2023-03-29T20:48:56.073Z,8.23
2023-03-29T20:51:28.130Z,9.40
2023-03-29T20:54:02.279Z,9.00
2023-03-29T20:56:35.385Z,9.37
2023-03-29T20:59:11.034Z,9.20
2023-03-29T21:01:40.548Z,8.50
2023-03-29T21:04:10.963Z,8.53
2023-03-29T21:06:41.439Z,9.27
2023-03-29T21:09:08.528Z,9.10
2023-03-29T21:11:40.884Z,9.47
2023-03-29T21:14:10.678Z,8.60
2023-03-29T21:16:42.339Z,9.37
2023-03-29T21:19:10.248Z,9.47
2023-03-29T21:21:41.485Z,9.80
2023-03-29T21:24:10.916Z,10.33
2023-03-29T21:26:38.004Z,9.37
2023-03-29T21:29:10.015Z,9.60
2023-03-29T21:31:37.485Z,9.30
2023-03-29T21:34:09.384Z,10.60
2023-03-29T21:36:36.473Z,9.73
2023-03-29T21:39:03.605Z,9.87
2023-03-29T21:41:33.131Z,9.87
2023-03-29T21:44:00.406Z,11.57
2023-03-29T21:46:27.401Z,11.40
2023-03-29T21:48:54.449Z,11.67
2023-03-29T21:51:23.885Z,12.63
2023-03-29T21:53:53.042Z,12.20
2023-03-29T21:56:19.912Z,13.07
2023-03-29T21:58:49.309Z,13.53
2023-03-29T22:01:16.777Z,13.07
2023-03-29T22:03:44.330Z,14.60
2023-03-29T22:06:15.895Z,14.70
2023-03-29T22:08:46.838Z,15.07
2023-03-29T22:11:17.289Z,14.70
2023-03-29T22:13:44.891Z,14.83
2023-03-29T22:16:18.335Z,15.17
2023-03-29T22:18:50.467Z,14.53
2023-03-29T22:21:26.551Z,15.63
2023-03-29T22:23:56.501Z,15.13
2023-03-29T22:26:30.854Z,14.90
2023-03-29T22:28:59.698Z,16.40
2023-03-29T22:31:28.341Z,16.00
2023-03-29T22:33:56.312Z,16.03
2023-03-29T22:36:25.729Z,16.87
2023-03-29T22:38:56.442Z,17.27
2023-03-29T22:41:26.100Z,16.67
2023-03-29T22:43:55.962Z,17.80
2023-03-29T22:46:24.023Z,18.43
2023-03-29T22:48:51.392Z,19.30
2023-03-29T22:51:19.614Z,18.93
2023-03-29T22:53:49.391Z,19.17
2023-03-29T22:56:17.235Z,18.20
2023-03-29T22:58:45.817Z,19.20
2023-03-29T23:01:17.456Z,19.70
2023-03-29T23:03:44.537Z,20.40
2023-03-29T23:06:13.777Z,23.20
2023-03-29T23:08:40.986Z,21.83
2023-03-29T23:11:08.096Z,24.57
2023-03-29T23:13:38.637Z,22.40
2023-03-29T23:16:06.226Z,20.87
2023-03-29T23:18:37.986Z,21.57
2023-03-29T23:21:06.137Z,22.60
2023-03-29T23:23:36.849Z,23.10
2023-03-29T23:26:07.040Z,21.47
2023-03-29T23:28:34.887Z,21.97
2023-03-29T23:31:09.883Z,22.40
2023-03-29T23:33:41.261Z,21.80
2023-03-29T23:36:14.667Z,21.37
2023-03-29T23:38:46.739Z,23.23
2023-03-29T23:41:14.323Z,22.53
2023-03-29T23:43:43.912Z,21.97
2023-03-29T23:46:16.848Z,22.07
2023-03-29T23:48:49.224Z,21.43
2023-03-29T23:51:23.287Z,20.80
2023-03-29T23:53:53.229Z,22.00
2023-03-29T23:56:21.717Z,21.80
2023-03-29T23:58:49.217Z,22.77
